Time;durP1;ratioP1;P1;durP2;ratioP2;P2;SDS_P1;SDS_P2;PMS_P1;PMS_P2;Temp;Humidity;BMP_temperature;BMP_pressure;BME280_temperature;BME280_humidity;BME280_pressure;Samples;Min_cycle;Max_cycle;Signal;HPM_P1;HPM_P2
2024/01/14 00:00:43;;;;;;;35.45;17.23;;;;;;;-1.17;100.00;100746.03;5035965;28;20646;-73
2024/01/14 00:03:08;;;;;;;34.90;17.73;;;;;;;-1.15;100.00;100733.03;5037791;28;20037;-74
2024/01/14 00:05:34;;;;;;;35.38;17.45;;;;;;;-1.16;100.00;100734.09;5036214;28;20044;-74
2024/01/14 00:07:59;;;;;;;37.08;18.73;;;;;;;-1.16;100.00;100720.47;5034991;28;20053;-73
2024/01/14 00:10:25;;;;;;;40.70;19.73;;;;;;;-1.20;100.00;100711.03;5036238;28;20036;-74
2024/01/14 00:12:50;;;;;;;52.97;20.98;;;;;;;-1.25;100.00;100712.72;5036988;28;20045;-74
2024/01/14 00:15:17;;;;;;;44.25;20.42;;;;;;;-1.28;100.00;100704.94;5036868;28;20642;-73
2024/01/14 00:17:43;;;;;;;48.65;22.15;;;;;;;-1.40;100.00;100707.47;5037403;28;20096;-73
2024/01/14 00:20:09;;;;;;;44.92;21.65;;;;;;;-1.39;100.00;100706.44;5037087;28;20034;-73
2024/01/14 00:22:34;;;;;;;53.92;24.02;;;;;;;-1.43;100.00;100705.19;5035809;28;20049;-73
2024/01/14 00:25:00;;;;;;;51.17;23.85;;;;;;;-1.46;100.00;100703.72;5015946;28;20798;-73
2024/01/14 00:27:25;;;;;;;43.22;21.02;;;;;;;-1.42;100.00;100707.72;5035994;28;20036;-73
2024/01/14 00:29:51;;;;;;;44.25;21.02;;;;;;;-1.38;100.00;100714.41;5036891;28;20029;-73
2024/01/14 00:32:16;;;;;;;42.33;19.52;;;;;;;-1.34;100.00;100709.34;5035795;28;20037;-73
2024/01/14 00:34:42;;;;;;;39.50;19.95;;;;;;;-1.28;100.00;100715.84;5052165;28;20063;-73
2024/01/14 00:37:07;;;;;;;43.90;20.88;;;;;;;-1.27;100.00;100717.53;5035617;28;20030;-73
2024/01/14 00:39:39;;;;;;;43.90;20.88;;;;;;;-1.25;100.00;100713.56;5035687;28;20029;-73
2024/01/14 00:42:07;;;;;;;41.50;20.13;;;;;;;-1.22;100.00;100724.03;5035534;28;20026;-73
2024/01/14 00:44:33;;;;;;;41.72;19.48;;;;;;;-1.21;100.00;100725.69;5036570;28;20063;-73
2024/01/14 00:46:58;;;;;;;39.25;18.67;;;;;;;-1.17;100.00;100713.34;5036420;28;20111;-73
2024/01/14 00:49:24;;;;;;;42.65;19.77;;;;;;;-1.16;100.00;100712.28;5037778;28;20033;-74
2024/01/14 00:51:49;;;;;;;37.25;18.95;;;;;;;-1.15;100.00;100713.94;5044885;28;20044;-74
2024/01/14 00:54:15;;;;;;;39.85;19.23;;;;;;;-1.15;100.00;100707.66;5035174;28;20044;-73
2024/01/14 00:56:41;;;;;;;37.65;19.50;;;;;;;-1.12;100.00;100708.06;5035593;28;20038;-73
2024/01/14 00:59:07;;;;;;;43.00;19.35;;;;;;;-1.10;100.00;100696.97;5035009;28;20029;-73
2024/01/14 01:01:32;;;;;;;45.75;21.70;;;;;;;-1.09;100.00;100695.91;5035007;28;20024;-73
2024/01/14 01:03:58;;;;;;;42.15;20.70;;;;;;;-1.12;100.00;100696.34;5035088;28;20452;-73
2024/01/14 01:06:23;;;;;;;42.35;20.67;;;;;;;-1.15;100.00;100696.75;5036432;28;20647;-73
2024/01/14 01:08:49;;;;;;;42.88;20.90;;;;;;;-1.12;100.00;100688.16;5033517;28;20036;-74
2024/01/14 01:11:17;;;;;;;42.33;19.83;;;;;;;-1.10;100.00;100690.69;5034802;28;20044;-73
2024/01/14 01:13:43;;;;;;;41.97;19.63;;;;;;;-1.10;100.00;100682.50;5035670;28;20037;-74
2024/01/14 01:16:08;;;;;;;43.35;20.10;;;;;;;-1.10;100.00;100679.78;5018275;28;20398;-73
2024/01/14 01:18:34;;;;;;;43.47;20.77;;;;;;;-1.09;100.00;100671.38;5035993;28;20033;-74
2024/01/14 01:21:00;;;;;;;43.15;20.50;;;;;;;-1.06;100.00;100672.84;5035940;28;20580;-74
2024/01/14 01:23:26;;;;;;;41.55;20.02;;;;;;;-1.05;100.00;100679.97;5036092;28;20053;-74
2024/01/14 01:25:51;;;;;;;43.78;20.52;;;;;;;-1.04;100.00;100678.91;5034608;28;20029;-74
2024/01/14 01:28:17;;;;;;;44.95;20.38;;;;;;;-1.05;100.00;100669.06;5067866;28;20028;-74
2024/01/14 01:30:43;;;;;;;41.88;20.70;;;;;;;-1.04;100.00;100666.13;5034520;28;20030;-74
2024/01/14 01:33:08;;;;;;;44.72;21.05;;;;;;;-1.03;100.00;100662.38;5036020;28;20037;-73
2024/01/14 01:35:33;;;;;;;40.42;18.88;;;;;;;-1.01;100.00;100670.31;5035396;28;20017;-74
2024/01/14 01:37:59;;;;;;;41.70;18.90;;;;;;;-1.01;100.00;100654.78;5035669;28;20033;-74
2024/01/14 01:40:24;;;;;;;44.20;20.50;;;;;;;-1.01;100.00;100659.41;5034616;28;20029;-74
2024/01/14 01:42:50;;;;;;;40.47;18.92;;;;;;;-1.01;100.00;100651.22;5017139;28;20030;-73
2024/01/14 01:45:15;;;;;;;41.88;19.65;;;;;;;-1.02;100.00;100652.28;4994718;28;20025;-74
2024/01/14 01:47:41;;;;;;;43.60;20.90;;;;;;;-1.01;100.00;100637.59;5035824;28;20053;-74
2024/01/14 01:50:07;;;;;;;42.35;20.38;;;;;;;-1.01;100.00;100638.44;5040603;28;20096;-73
2024/01/14 01:52:33;;;;;;;39.15;19.23;;;;;;;-1.02;100.00;100634.03;5036533;28;20486;-74
2024/01/14 01:54:58;;;;;;;41.47;20.58;;;;;;;-0.99;100.00;100630.03;5018074;28;20025;-73
2024/01/14 01:57:23;;;;;;;40.33;19.88;;;;;;;-0.99;100.00;100621.88;5034265;28;20029;-74
2024/01/14 01:59:49;;;;;;;41.15;19.55;;;;;;;-0.99;100.00;100621.88;5014404;28;20065;-74
2024/01/14 02:02:14;;;;;;;43.20;20.27;;;;;;;-1.02;100.00;100619.56;5033435;28;20029;-74
2024/01/14 02:04:40;;;;;;;39.47;19.00;;;;;;;-1.01;100.00;100610.34;5035615;28;20405;-73
2024/01/14 02:07:06;;;;;;;40.63;20.05;;;;;;;-1.01;100.00;100602.16;5034098;28;20025;-73
2024/01/14 02:09:32;;;;;;;42.22;19.52;;;;;;;-1.00;100.00;100601.13;4989579;28;20049;-73
2024/01/14 02:11:58;;;;;;;41.88;20.33;;;;;;;-1.00;100.00;100609.31;5049932;28;20022;-73
2024/01/14 02:14:24;;;;;;;38.60;18.88;;;;;;;-0.99;100.00;100613.69;5017611;28;20038;-73
2024/01/14 02:16:49;;;;;;;40.88;19.25;;;;;;;-1.01;100.00;100611.16;5033849;28;20033;-73
2024/01/14 02:19:15;;;;;;;40.15;19.95;;;;;;;-1.01;100.00;100600.25;5035617;28;20034;-73
2024/01/14 02:21:44;;;;;;;41.53;21.55;;;;;;;-1.01;100.00;100600.25;5035258;28;20528;-73
2024/01/14 02:24:28;;;;;;;42.15;20.08;;;;;;;-1.01;100.00;100600.25;5035371;28;20456;-73
2024/01/14 02:26:54;;;;;;;39.78;19.50;;;;;;;-1.02;100.00;100601.31;5022574;28;20026;-73
2024/01/14 02:29:20;;;;;;;45.90;20.88;;;;;;;-1.00;100.00;100598.41;5034639;28;20089;-73
2024/01/14 02:31:46;;;;;;;38.38;19.90;;;;;;;-1.00;100.00;100595.66;5033821;28;20030;-74
2024/01/14 02:34:12;;;;;;;42.95;20.35;;;;;;;-1.02;100.00;100595.03;5017734;28;20079;-74
2024/01/14 02:36:37;;;;;;;45.50;20.58;;;;;;;-0.99;100.00;100602.78;5034991;28;20029;-74
2024/01/14 02:39:04;;;;;;;37.03;18.63;;;;;;;-1.02;100.00;100584.13;5000049;28;20037;-73
2024/01/14 02:41:30;;;;;;;46.03;21.15;;;;;;;-1.03;100.00;100588.75;5034066;28;20452;-74
2024/01/14 02:43:56;;;;;;;45.08;21.90;;;;;;;-1.02;100.00;100578.69;5045430;28;20040;-73
2024/01/14 02:46:21;;;;;;;40.10;20.25;;;;;;;-1.04;100.00;100578.88;5034911;28;20030;-73
2024/01/14 02:48:46;;;;;;;41.50;19.42;;;;;;;-1.07;100.00;100583.94;5036065;28;20044;-73
2024/01/14 02:51:12;;;;;;;42.58;20.35;;;;;;;-1.02;100.00;100581.41;5045116;28;20032;-73
2024/01/14 02:53:38;;;;;;;44.13;20.27;;;;;;;-1.04;100.00;100578.88;5039727;28;20080;-73
2024/01/14 02:56:04;;;;;;;43.58;19.92;;;;;;;-1.05;100.00;100576.41;5037392;28;20029;-73
2024/01/14 02:58:29;;;;;;;42.40;20.40;;;;;;;-1.05;100.00;100568.22;5037252;28;20037;-73
2024/01/14 03:00:55;;;;;;;44.30;19.67;;;;;;;-1.00;100.00;100573.88;5053777;28;20056;-73
2024/01/14 03:03:21;;;;;;;43.40;20.35;;;;;;;-1.05;100.00;100577.22;5037824;28;20152;-73
2024/01/14 03:05:47;;;;;;;41.80;20.65;;;;;;;-1.03;100.00;100568.81;5054040;28;20390;-73
2024/01/14 03:08:13;;;;;;;45.67;21.13;;;;;;;-1.02;100.00;100568.63;5036073;28;20035;-73
2024/01/14 03:10:38;;;;;;;45.38;21.77;;;;;;;-1.02;100.00;100560.44;5070335;28;20037;-73
2024/01/14 03:13:04;;;;;;;46.00;21.48;;;;;;;-1.04;100.00;100553.53;5037278;28;20378;-73
2024/01/14 03:15:30;;;;;;;45.17;22.02;;;;;;;-1.05;100.00;100543.69;5037021;28;20486;-73
2024/01/14 03:17:55;;;;;;;43.05;20.88;;;;;;;-1.06;100.00;100545.53;5021549;28;20029;-73
2024/01/14 03:20:22;;;;;;;45.70;21.30;;;;;;;-1.08;100.00;100542.22;5036973;28;20501;-74
2024/01/14 03:22:48;;;;;;;43.25;21.33;;;;;;;-1.07;100.00;100545.78;5038167;28;20042;-73
2024/01/14 03:25:13;;;;;;;43.42;20.17;;;;;;;-1.04;100.00;100545.34;5038232;28;20032;-73
2024/01/14 03:27:39;;;;;;;48.92;21.13;;;;;;;-1.04;100.00;100534.44;5038081;28;20081;-73
2024/01/14 03:30:05;;;;;;;40.97;21.23;;;;;;;-1.03;100.00;100536.09;5037988;28;20437;-73
2024/01/14 03:32:30;;;;;;;44.03;20.95;;;;;;;-1.06;100.00;100536.53;5038059;28;20034;-73
2024/01/14 03:34:56;;;;;;;40.78;19.42;;;;;;;-1.06;100.00;100523.75;5053522;28;20031;-73
2024/01/14 03:37:21;;;;;;;46.55;21.58;;;;;;;-1.04;100.00;100534.44;5020283;28;20060;-73
2024/01/14 03:39:47;;;;;;;42.00;20.17;;;;;;;-1.05;100.00;100532.78;5070144;28;20045;-74
2024/01/14 03:42:12;;;;;;;40.10;20.52;;;;;;;-1.04;100.00;100523.53;5036104;28;20502;-73
2024/01/14 03:44:38;;;;;;;45.65;23.10;;;;;;;-1.04;100.00;100532.53;5036467;28;20030;-74
2024/01/14 03:47:03;;;;;;;49.55;24.00;;;;;;;-1.06;100.00;100536.53;5038034;28;20033;-73
2024/01/14 03:49:30;;;;;;;51.95;23.08;;;;;;;-1.12;100.00;100525.44;5038898;28;20674;-73
2024/01/14 03:51:56;;;;;;;48.13;22.45;;;;;;;-1.11;100.00;100520.84;5046561;28;20025;-73
2024/01/14 03:54:21;;;;;;;45.17;21.58;;;;;;;-1.10;100.00;100511.63;5036603;28;20040;-73
2024/01/14 03:56:46;;;;;;;48.17;22.15;;;;;;;-1.13;100.00;100507.44;5037739;28;20033;-74
2024/01/14 03:59:12;;;;;;;52.78;24.10;;;;;;;-1.21;100.00;100507.69;5037199;28;20036;-73
2024/01/14 04:01:43;;;;;;;50.55;23.42;;;;;;;-1.21;100.00;100507.69;5037550;28;20120;-73
2024/01/14 04:04:09;;;;;;;52.28;23.90;;;;;;;-1.20;100.00;100516.69;5020351;28;20037;-73
2024/01/14 04:06:35;;;;;;;51.22;23.83;;;;;;;-1.20;100.00;100513.97;5035132;28;20027;-74
2024/01/14 04:09:01;;;;;;;45.70;21.70;;;;;;;-1.18;100.00;100531.78;5019650;28;20124;-73
2024/01/14 04:11:26;;;;;;;47.60;22.33;;;;;;;-1.16;100.00;100516.03;5035910;28;20485;-74
2024/01/14 04:13:52;;;;;;;50.03;24.05;;;;;;;-1.14;100.00;100504.94;5019381;28;20021;-73
2024/01/14 04:16:18;;;;;;;47.58;21.70;;;;;;;-1.19;100.00;100508.31;5037121;28;20088;-73
2024/01/14 04:18:43;;;;;;;43.05;20.55;;;;;;;-1.14;100.00;100522.13;5037352;28;20038;-73
2024/01/14 04:21:08;;;;;;;44.78;22.25;;;;;;;-1.16;100.00;100515.22;5019280;28;20410;-74
2024/01/14 04:23:34;;;;;;;52.55;23.92;;;;;;;-1.15;100.00;100493.19;5052812;28;20044;-73
2024/01/14 04:26:06;;;;;;;44.63;21.08;;;;;;;-1.13;100.00;100514.78;5037015;28;20060;-74
2024/01/14 04:28:31;;;;;;;50.22;24.48;;;;;;;-1.13;100.00;100492.97;5037187;28;20033;-73
2024/01/14 04:30:57;;;;;;;41.97;20.10;;;;;;;-1.14;100.00;100508.50;5036783;28;20029;-74
2024/01/14 04:33:23;;;;;;;44.53;22.20;;;;;;;-1.12;100.00;100509.09;5037148;28;20030;-73
2024/01/14 04:35:48;;;;;;;49.70;22.13;;;;;;;-1.12;100.00;100506.38;5036776;28;20497;-73
2024/01/14 04:38:13;;;;;;;49.65;22.20;;;;;;;-1.08;100.00;100501.34;5036984;28;20036;-73
2024/01/14 04:40:39;;;;;;;43.28;21.50;;;;;;;-1.12;100.00;100506.38;5035604;28;20033;-74
2024/01/14 04:43:06;;;;;;;47.35;22.92;;;;;;;-1.07;100.00;100513.06;5035641;28;20033;-73
2024/01/14 04:45:31;;;;;;;44.28;22.42;;;;;;;-1.05;100.00;100514.53;4999266;28;20101;-73
2024/01/14 04:47:57;;;;;;;46.45;22.02;;;;;;;-1.05;100.00;100502.78;5035503;28;20522;-73
2024/01/14 04:50:22;;;;;;;45.85;21.42;;;;;;;-1.06;100.00;100496.47;5043690;28;20087;-73
2024/01/14 04:52:48;;;;;;;44.05;21.48;;;;;;;-1.05;100.00;100495.44;5039632;28;20371;-74
2024/01/14 04:55:13;;;;;;;46.65;21.73;;;;;;;-1.05;100.00;100489.16;5036575;28;20033;-73
2024/01/14 04:57:39;;;;;;;49.10;21.92;;;;;;;-1.06;100.00;100490.19;5035322;28;20604;-74
2024/01/14 05:00:05;;;;;;;46.67;21.42;;;;;;;-1.05;100.00;100489.16;5034892;28;20025;-73
2024/01/14 05:02:30;;;;;;;46.28;21.13;;;;;;;-1.04;100.00;100494.38;5035182;28;20037;-73
2024/01/14 05:04:57;;;;;;;45.97;22.15;;;;;;;-1.03;100.00;100500.66;5035275;28;20030;-74
2024/01/14 05:07:22;;;;;;;43.95;21.83;;;;;;;-1.03;100.00;100495.22;5035093;28;20083;-73
2024/01/14 05:09:48;;;;;;;44.47;22.20;;;;;;;-1.02;100.00;100494.19;5035875;28;20025;-74
2024/01/14 05:12:13;;;;;;;47.53;21.58;;;;;;;-1.01;100.00;100488.50;5035905;28;20033;-73
2024/01/14 05:14:39;;;;;;;45.25;21.63;;;;;;;-1.01;100.00;100491.22;5035874;28;20029;-73
2024/01/14 05:17:04;;;;;;;44.50;21.15;;;;;;;-1.02;100.00;100492.28;5042564;28;20025;-73
2024/01/14 05:19:30;;;;;;;45.80;21.60;;;;;;;-0.99;100.00;100496.47;5039871;28;20511;-73
2024/01/14 05:21:56;;;;;;;44.95;21.88;;;;;;;-0.97;100.00;100499.81;5036104;28;20049;-74
2024/01/14 05:24:22;;;;;;;45.95;22.13;;;;;;;-1.02;100.00;100495.00;5036093;28;20033;-74
2024/01/14 05:26:47;;;;;;;44.88;22.13;;;;;;;-1.01;100.00;100493.09;5034889;28;20079;-73
2024/01/14 05:29:13;;;;;;;44.38;21.20;;;;;;;-1.01;100.00;100493.09;5035736;28;20552;-73
2024/01/14 05:31:38;;;;;;;53.13;23.58;;;;;;;-0.98;100.00;100492.66;5036069;28;20029;-74
2024/01/14 05:34:04;;;;;;;51.97;23.38;;;;;;;-0.96;100.00;100491.41;5034549;28;20030;-73
2024/01/14 05:36:29;;;;;;;55.00;23.55;;;;;;;-0.97;100.00;100491.63;5034715;28;20319;-73
2024/01/14 05:38:55;;;;;;;56.65;24.38;;;;;;;-0.99;100.00;100491.00;5001664;28;20052;-73
2024/01/14 05:41:20;;;;;;;54.47;24.08;;;;;;;-0.99;100.00;100483.66;5001783;28;20029;-74
2024/01/14 05:43:46;;;;;;;56.10;23.95;;;;;;;-0.95;100.00;100484.06;5016503;28;20505;-73
2024/01/14 05:46:12;;;;;;;57.00;25.25;;;;;;;-0.96;100.00;100483.22;4985801;28;20036;-74
2024/01/14 05:48:37;;;;;;;57.33;24.10;;;;;;;-0.96;100.00;100477.78;5032150;28;20033;-73
2024/01/14 05:51:03;;;;;;;57.97;25.05;;;;;;;-0.98;100.00;100479.03;5000844;28;20030;-74
2024/01/14 05:53:28;;;;;;;57.50;24.50;;;;;;;-1.00;100.00;100476.56;5028917;28;20087;-73
2024/01/14 05:55:54;;;;;;;58.80;24.80;;;;;;;-0.98;100.00;100482.59;5030028;28;20037;-73
2024/01/14 05:58:19;;;;;;;60.30;25.73;;;;;;;-0.96;100.00;100476.94;5031779;28;20485;-73
2024/01/14 06:00:45;;;;;;;60.20;24.38;;;;;;;-0.97;100.00;100486.19;5013985;28;20037;-73
2024/01/14 06:03:10;;;;;;;58.53;25.05;;;;;;;-0.95;100.00;100481.31;5031443;28;20030;-73
2024/01/14 06:05:36;;;;;;;62.67;25.25;;;;;;;-0.95;100.00;100470.41;5031680;28;20033;-73
2024/01/14 06:08:02;;;;;;;59.80;25.00;;;;;;;-0.96;100.00;100482.41;5028982;28;20512;-73
2024/01/14 06:10:27;;;;;;;64.13;25.48;;;;;;;-0.98;100.00;100476.31;5054513;28;20234;-74
2024/01/14 06:12:53;;;;;;;55.85;24.23;;;;;;;-0.91;100.00;100474.41;5028503;28;20026;-73
2024/01/14 06:15:19;;;;;;;58.47;23.48;;;;;;;-0.94;100.00;100463.94;5028948;28;20029;-74
2024/01/14 06:17:44;;;;;;;54.30;23.52;;;;;;;-0.94;100.00;100459.31;5045972;28;20041;-74
2024/01/14 06:20:10;;;;;;;54.92;23.95;;;;;;;-0.95;100.00;100452.19;5027019;28;20383;-73
2024/01/14 06:22:36;;;;;;;51.50;22.98;;;;;;;-0.94;100.00;100455.75;4999506;28;20036;-73
2024/01/14 06:25:01;;;;;;;44.08;21.33;;;;;;;-0.92;100.00;100459.06;5019360;28;20068;-73
2024/01/14 06:27:27;;;;;;;51.25;22.40;;;;;;;-0.94;100.00;100453.84;5065872;28;20421;-73
2024/01/14 06:29:52;;;;;;;44.22;20.48;;;;;;;-0.90;100.00;100451.50;5034779;28;20029;-74
2024/01/14 06:32:18;;;;;;;42.45;19.15;;;;;;;-0.91;100.00;100453.41;5067095;28;20026;-73
2024/01/14 06:34:43;;;;;;;47.00;21.52;;;;;;;-0.90;100.00;100454.25;5033898;28;20038;-74
2024/01/14 06:37:09;;;;;;;41.72;18.70;;;;;;;-0.90;100.00;100456.97;5036361;28;20186;-73
2024/01/14 06:39:35;;;;;;;41.88;19.38;;;;;;;-0.93;100.00;100462.88;5030015;28;20502;-73
2024/01/14 06:42:00;;;;;;;44.55;20.42;;;;;;;-0.90;100.00;100456.97;5033690;28;20026;-74
2024/01/14 06:44:26;;;;;;;41.10;19.42;;;;;;;-0.88;100.00;100460.31;5034672;28;20033;-73
2024/01/14 06:46:51;;;;;;;37.90;17.67;;;;;;;-0.88;100.00;100464.94;5016413;28;20040;-74
2024/01/14 06:49:17;;;;;;;42.55;19.48;;;;;;;-0.87;100.00;100461.97;5034926;28;20049;-73
2024/01/14 06:51:46;;;;;;;38.63;18.90;;;;;;;-0.87;100.00;100459.25;5024499;28;20095;-74
2024/01/14 06:54:12;;;;;;;39.53;19.23;;;;;;;-0.87;100.00;100464.72;5036001;28;20559;-73
2024/01/14 06:56:47;;;;;;;38.40;17.85;;;;;;;-0.88;100.00;100468.50;5018223;28;20029;-74
2024/01/14 06:59:13;;;;;;;40.20;18.42;;;;;;;-0.87;100.00;100461.97;5036084;28;20035;-73
2024/01/14 07:01:39;;;;;;;39.25;18.27;;;;;;;-0.86;100.00;100471.84;5035017;28;20104;-74
2024/01/14 07:04:04;;;;;;;38.60;18.08;;;;;;;-0.85;100.00;100478.13;5035759;28;20033;-73
2024/01/14 07:06:30;;;;;;;39.33;18.52;;;;;;;-0.86;100.00;100471.84;5034329;28;20044;-73
2024/01/14 07:08:55;;;;;;;36.45;18.75;;;;;;;-0.84;100.00;100477.91;5036114;28;20408;-73
2024/01/14 07:11:20;;;;;;;36.63;18.08;;;;;;;-0.84;100.00;100475.16;5035339;28;20418;-73
2024/01/14 07:13:46;;;;;;;35.63;17.35;;;;;;;-0.80;100.00;100473.69;5033707;28;20033;-73
2024/01/14 07:16:12;;;;;;;34.40;17.02;;;;;;;-0.81;100.00;100465.72;5034097;28;20025;-73
2024/01/14 07:18:37;;;;;;;39.75;19.13;;;;;;;-0.83;100.00;100465.13;5018540;28;20029;-73
2024/01/14 07:21:03;;;;;;;34.13;17.13;;;;;;;-0.83;100.00;100471.41;5032030;28;20398;-73
2024/01/14 07:23:28;;;;;;;37.65;18.10;;;;;;;-0.81;100.00;100469.28;5034772;28;20041;-73
2024/01/14 07:25:53;;;;;;;33.28;16.05;;;;;;;-0.80;100.00;100451.03;5034671;28;20025;-73
2024/01/14 07:28:19;;;;;;;37.20;17.73;;;;;;;-0.79;100.00;100450.81;5033554;28;20033;-73
2024/01/14 07:30:44;;;;;;;35.60;16.77;;;;;;;-0.82;100.00;100447.69;5066706;28;20033;-73
2024/01/14 07:33:10;;;;;;;36.72;17.77;;;;;;;-0.81;100.00;100443.91;5032227;28;20049;-73
2024/01/14 07:35:35;;;;;;;36.25;16.88;;;;;;;-0.80;100.00;100437.41;5033280;28;20017;-74
2024/01/14 07:38:01;;;;;;;37.55;18.50;;;;;;;-0.81;100.00;100442.00;5032282;28;20041;-74
2024/01/14 07:40:26;;;;;;;39.17;18.23;;;;;;;-0.78;100.00;100441.59;5017796;28;20497;-74
2024/01/14 07:42:53;;;;;;;35.53;17.63;;;;;;;-0.78;100.00;100444.31;5036479;28;20029;-74
2024/01/14 07:45:18;;;;;;;34.38;17.20;;;;;;;-0.78;100.00;100449.78;5035231;28;20037;-73
2024/01/14 07:47:44;;;;;;;32.20;16.52;;;;;;;-0.76;100.00;100455.81;5034768;28;20508;-73
2024/01/14 07:50:09;;;;;;;36.10;16.52;;;;;;;-0.75;100.00;100457.50;5034277;28;20049;-73
2024/01/14 07:52:35;;;;;;;34.83;16.60;;;;;;;-0.76;100.00;100465.91;5033566;28;20394;-73
2024/01/14 07:55:01;;;;;;;35.38;17.35;;;;;;;-0.75;100.00;100465.69;5032064;28;20029;-73
2024/01/14 07:57:26;;;;;;;32.80;15.63;;;;;;;-0.76;100.00;100466.72;5033429;28;20385;-73
2024/01/14 07:59:52;;;;;;;36.30;17.67;;;;;;;-0.74;100.00;100461.91;5015901;28;20038;-74
2024/01/14 08:02:17;;;;;;;32.55;16.25;;;;;;;-0.73;100.00;100465.44;5030810;28;20021;-73
2024/01/14 08:04:44;;;;;;;33.55;16.73;;;;;;;-0.73;100.00;100462.72;5050075;28;20140;-73
2024/01/14 08:07:10;;;;;;;36.05;16.23;;;;;;;-0.71;100.00;100464.19;5064962;28;20120;-74
2024/01/14 08:09:35;;;;;;;32.72;16.73;;;;;;;-0.70;100.00;100457.69;5032662;28;20036;-74
2024/01/14 08:12:01;;;;;;;31.50;16.02;;;;;;;-0.71;100.00;100461.44;4999075;28;20037;-74
2024/01/14 08:14:26;;;;;;;33.33;15.85;;;;;;;-0.68;100.00;100458.28;5015502;28;20041;-72
2024/01/14 08:16:52;;;;;;;32.53;16.30;;;;;;;-0.68;100.00;100463.72;5048703;28;20037;-72
2024/01/14 08:19:19;;;;;;;32.97;15.70;;;;;;;-0.69;100.00;100462.06;5016316;28;20532;-72
2024/01/14 08:21:45;;;;;;;34.40;17.35;;;;;;;-0.66;100.00;100463.53;5000390;28;20045;-71
2024/01/14 08:24:10;;;;;;;34.35;16.63;;;;;;;-0.67;100.00;100459.09;5031374;28;20033;-73
2024/01/14 08:26:45;;;;;;;36.53;17.73;;;;;;;-0.68;100.00;100455.53;5015835;28;20047;-72
2024/01/14 08:29:13;;;;;;;40.65;18.38;;;;;;;-0.66;100.00;100457.25;5033057;28;20966;-73
2024/01/14 08:31:39;;;;;;;37.20;18.73;;;;;;;-0.66;100.00;100449.06;5015994;28;20079;-74
2024/01/14 08:34:04;;;;;;;40.92;19.50;;;;;;;-0.70;100.00;100457.69;5033134;28;20025;-74
2024/01/14 08:36:31;;;;;;;38.78;19.48;;;;;;;-0.72;100.00;100457.06;5031736;28;20068;-73
2024/01/14 08:38:57;;;;;;;40.30;19.02;;;;;;;-0.72;100.00;100459.78;5033385;28;20494;-74
2024/01/14 08:41:26;;;;;;;40.47;20.02;;;;;;;-0.72;100.00;100448.06;5029774;28;20025;-73
2024/01/14 08:43:51;;;;;;;38.50;19.70;;;;;;;-0.70;100.00;100449.50;5031561;28;20021;-74
2024/01/14 08:46:18;;;;;;;41.55;20.77;;;;;;;-0.70;100.00;100449.50;5030661;28;20087;-74
2024/01/14 08:48:44;;;;;;;40.15;19.75;;;;;;;-0.72;100.00;100440.69;5033214;28;20132;-74
2024/01/14 08:51:10;;;;;;;39.40;19.67;;;;;;;-0.72;100.00;100429.78;5036251;28;20033;-74
2024/01/14 08:53:35;;;;;;;41.17;20.42;;;;;;;-0.71;100.00;100445.09;5037374;28;20060;-74
2024/01/14 08:56:01;;;;;;;40.03;20.55;;;;;;;-0.72;100.00;100446.16;5036383;28;20658;-74
2024/01/14 08:58:26;;;;;;;41.97;20.77;;;;;;;-0.71;100.00;100439.63;5036438;28;20029;-74
2024/01/14 09:00:52;;;;;;;37.17;19.77;;;;;;;-0.66;100.00;100446.34;5036250;28;20029;-74
2024/01/14 09:03:17;;;;;;;37.80;19.60;;;;;;;-0.63;100.00;100446.72;5035204;28;20029;-74
2024/01/14 09:05:43;;;;;;;39.13;18.85;;;;;;;-0.59;100.00;100449.81;5036578;28;20075;-74
2024/01/14 09:08:09;;;;;;;39.88;18.08;;;;;;;-0.58;100.00;100435.16;5035048;28;20375;-73
2024/01/14 09:10:35;;;;;;;35.95;17.25;;;;;;;-0.56;100.00;100435.72;5036274;28;20100;-73
2024/01/14 09:13:00;;;;;;;39.97;19.02;;;;;;;-0.53;100.00;100427.09;5036015;28;20036;-74
2024/01/14 09:15:25;;;;;;;37.40;17.90;;;;;;;-0.51;100.00;100427.72;5034914;28;20028;-73
2024/01/14 09:17:51;;;;;;;38.03;18.92;;;;;;;-0.50;100.00;100421.22;5030999;28;20048;-73
2024/01/14 09:20:17;;;;;;;38.47;18.52;;;;;;;-0.47;100.00;100429.78;5023485;28;20100;-74
2024/01/14 09:22:42;;;;;;;37.13;18.60;;;;;;;-0.43;100.00;100432.06;5037068;28;20048;-74
2024/01/14 09:25:08;;;;;;;37.53;18.40;;;;;;;-0.40;100.00;100417.97;5037206;28;20036;-74
2024/01/14 09:27:34;;;;;;;30.85;16.40;;;;;;;-0.38;100.00;100416.69;5036802;28;20034;-73
2024/01/14 09:30:00;;;;;;;37.95;18.23;;;;;;;-0.37;100.00;100412.91;5036918;28;20029;-74
2024/01/14 09:32:26;;;;;;;37.25;19.05;;;;;;;-0.34;100.00;100415.16;5036761;28;20371;-74
2024/01/14 09:34:51;;;;;;;39.85;19.10;;;;;;;-0.30;100.00;100421.88;5035989;28;20037;-74
2024/01/14 09:37:17;;;;;;;40.95;20.67;;;;;;;-0.31;100.00;100413.88;5036733;28;20029;-73
2024/01/14 09:39:42;;;;;;;41.47;20.13;;;;;;;-0.28;100.00;100407.97;5035934;28;20067;-73
2024/01/14 09:42:19;;;;;;;46.20;20.80;;;;;;;-0.28;100.00;100414.28;5036760;28;20033;-73
2024/01/14 09:44:45;;;;;;;49.90;22.63;;;;;;;-0.28;100.00;100413.44;5035401;28;20090;-73
2024/01/14 09:47:11;;;;;;;48.28;22.30;;;;;;;-0.24;100.00;100423.69;5002652;28;20084;-73
2024/01/14 09:49:36;;;;;;;46.30;20.48;;;;;;;-0.23;100.00;100417.16;5036428;28;20030;-73
2024/01/14 09:52:03;;;;;;;50.72;23.05;;;;;;;-0.22;100.00;100418.03;5020945;28;20030;-73
2024/01/14 09:54:29;;;;;;;49.22;21.60;;;;;;;-0.21;100.00;100410.66;5019215;28;20025;-73
2024/01/14 09:56:55;;;;;;;47.63;22.92;;;;;;;-0.15;100.00;100409.75;5030289;28;20059;-73
2024/01/14 09:59:20;;;;;;;48.55;21.98;;;;;;;-0.14;100.00;100415.00;5035119;28;20037;-74
2024/01/14 10:01:45;;;;;;;49.50;23.50;;;;;;;-0.12;100.00;100412.03;5018889;28;20033;-74
2024/01/14 10:04:12;;;;;;;49.75;21.75;;;;;;;-0.08;100.00;100410.53;5035629;28;20044;-73
2024/01/14 10:06:38;;;;;;;47.53;21.80;;;;;;;-0.05;100.00;100407.34;5018803;28;20029;-74
2024/01/14 10:09:04;;;;;;;45.60;22.75;;;;;;;-0.01;100.00;100417.56;5015512;28;20032;-73
2024/01/14 10:11:30;;;;;;;42.70;20.58;;;;;;;0.02;100.00;100423.63;5044030;28;20037;-73
2024/01/14 10:13:55;;;;;;;49.60;22.38;;;;;;;0.07;100.00;100430.09;5036372;28;20090;-74
2024/01/14 10:16:22;;;;;;;46.65;22.60;;;;;;;0.13;100.00;100423.72;5048139;28;20036;-73
2024/01/14 10:18:48;;;;;;;44.90;21.50;;;;;;;0.17;100.00;100418.66;5036748;28;20059;-74
2024/01/14 10:21:14;;;;;;;47.33;21.90;;;;;;;0.22;100.00;100422.38;5036134;28;20516;-74
2024/01/14 10:23:39;;;;;;;43.65;21.25;;;;;;;0.26;100.00;100413.72;5033684;28;20064;-74
2024/01/14 10:26:05;;;;;;;42.97;20.38;;;;;;;0.31;100.00;100414.69;5034181;28;20100;-74
2024/01/14 10:28:34;;;;;;;44.88;20.80;;;;;;;0.36;100.00;100414.00;5017532;28;20030;-74
2024/01/14 10:31:01;;;;;;;48.42;23.30;;;;;;;0.41;100.00;100416.88;5035135;28;20033;-74
2024/01/14 10:33:30;;;;;;;44.20;20.73;;;;;;;0.46;100.00;100425.22;5017518;28;20432;-74
2024/01/14 10:35:56;;;;;;;48.25;22.30;;;;;;;0.53;100.00;100422.41;5034982;28;20032;-73
2024/01/14 10:38:22;;;;;;;47.45;22.42;;;;;;;0.58;100.00;100425.28;5035156;28;20029;-74
2024/01/14 10:40:48;;;;;;;44.25;21.25;;;;;;;0.63;100.00;100426.25;5035272;28;20482;-74
2024/01/14 10:43:13;;;;;;;45.33;22.45;;;;;;;0.70;100.00;100430.78;5017430;28;20029;-74
2024/01/14 10:45:39;;;;;;;45.60;22.42;;;;;;;0.76;100.00;100432.63;5039774;28;20037;-73
2024/01/14 10:48:06;;;;;;;45.15;22.55;;;;;;;0.79;100.00;100422.06;5033843;28;20087;-72
2024/01/14 10:50:32;;;;;;;42.25;20.58;;;;;;;0.86;100.00;100427.41;5007407;28;20026;-72
2024/01/14 10:52:57;;;;;;;49.80;23.08;;;;;;;0.91;100.00;100427.56;5001997;28;20038;-75
2024/01/14 10:55:41;;;;;;;44.47;22.00;;;;;;;0.96;100.00;100430.44;5032256;28;20045;-72